createdAt,value
2018-02-17T00:04:16.547Z,11.63
2018-02-17T00:06:43.236Z,10.27
2018-02-17T00:09:09.865Z,10.90
2018-02-17T00:11:36.216Z,11.00
2018-02-17T00:14:02.845Z,12.57
2018-02-17T00:16:29.158Z,11.47
2018-02-17T00:18:55.696Z,11.33
2018-02-17T00:21:22.131Z,11.20
2018-02-17T00:23:48.763Z,10.23
2018-02-17T00:26:14.970Z,10.80
2018-02-17T00:28:41.280Z,9.03
2018-02-17T00:31:07.469Z,8.93
2018-02-17T00:33:33.698Z,10.33
2018-02-17T00:36:00.030Z,9.40
2018-02-17T00:38:26.354Z,9.73
2018-02-17T00:40:52.781Z,8.20
2018-02-17T00:43:18.984Z,8.60
2018-02-17T00:45:45.242Z,7.20
2018-02-17T00:48:11.560Z,8.53
2018-02-17T00:50:38.100Z,8.00
2018-02-17T00:53:04.405Z,7.20
2018-02-17T00:55:30.855Z,7.73
2018-02-17T00:57:57.512Z,7.90
2018-02-17T01:00:23.758Z,7.67
2018-02-17T01:02:50.738Z,7.40
2018-02-17T01:05:17.057Z,6.10
2018-02-17T01:07:43.390Z,6.50
2018-02-17T01:10:10.441Z,6.97
2018-02-17T01:12:36.833Z,6.47
2018-02-17T01:15:03.816Z,6.53
2018-02-17T01:17:30.316Z,6.20
2018-02-17T01:19:56.874Z,6.23
2018-02-17T01:22:23.165Z,5.60
2018-02-17T01:24:49.417Z,5.87
2018-02-17T01:27:16.395Z,6.53
2018-02-17T01:29:42.680Z,5.57
2018-02-17T01:32:08.901Z,5.63
2018-02-17T01:34:35.129Z,9.20
2018-02-17T01:37:01.297Z,8.67
2018-02-17T01:39:27.609Z,8.13
2018-02-17T01:41:54.705Z,6.57
2018-02-17T01:44:20.945Z,6.57
2018-02-17T01:46:47.404Z,6.80
2018-02-17T01:49:14.415Z,6.23
2018-02-17T01:51:40.760Z,6.57
2018-02-17T01:54:07.177Z,6.20
2018-02-17T01:56:33.440Z,5.90
2018-02-17T01:59:00.352Z,6.03
2018-02-17T02:01:26.605Z,6.90
2018-02-17T02:03:54.338Z,6.90
2018-02-17T02:06:20.793Z,5.97
2018-02-17T02:08:47.942Z,6.33
2018-02-17T02:11:15.093Z,5.50
2018-02-17T02:13:42.060Z,7.13
2018-02-17T02:16:08.696Z,6.83
2018-02-17T02:18:35.752Z,5.90
2018-02-17T02:21:02.043Z,6.17
2018-02-17T02:23:28.351Z,5.10
2018-02-17T02:25:54.559Z,11.23
2018-02-17T02:28:20.839Z,10.00
2018-02-17T02:30:47.790Z,10.40
2018-02-17T02:33:14.840Z,10.93
2018-02-17T02:35:41.888Z,9.17
2018-02-17T02:38:08.126Z,7.90
2018-02-17T02:40:34.397Z,5.97
2018-02-17T02:43:00.570Z,5.53
2018-02-17T02:45:26.803Z,4.47
2018-02-17T02:47:53.304Z,4.23
2018-02-17T02:50:19.520Z,4.50
2018-02-17T02:52:45.857Z,4.23
2018-02-17T02:55:12.986Z,4.47
2018-02-17T02:57:39.310Z,4.83
2018-02-17T03:00:05.922Z,3.60
2018-02-17T03:02:32.293Z,3.90
2018-02-17T03:04:58.730Z,3.93
2018-02-17T03:07:24.944Z,3.57
2018-02-17T03:09:51.177Z,3.47
2018-02-17T03:12:17.363Z,4.40
2018-02-17T03:14:44.039Z,3.43
2018-02-17T03:17:10.279Z,3.40
2018-02-17T03:19:37.506Z,3.87
2018-02-17T03:22:04.467Z,3.10
2018-02-17T03:24:32.316Z,2.87
2018-02-17T03:26:58.522Z,3.17
2018-02-17T03:29:24.878Z,3.50
2018-02-17T03:31:51.301Z,3.50
2018-02-17T03:34:17.539Z,3.83
2018-02-17T03:36:43.927Z,3.33
2018-02-17T03:39:10.305Z,2.90
2018-02-17T03:41:36.661Z,3.80
2018-02-17T03:44:02.853Z,3.37
2018-02-17T03:46:29.138Z,4.17
2018-02-17T03:48:55.459Z,3.40
2018-02-17T03:51:22.050Z,3.30
2018-02-17T03:53:49.387Z,4.07
2018-02-17T03:56:15.890Z,3.90
2018-02-17T03:58:42.042Z,3.73
2018-02-17T04:01:08.336Z,3.30
2018-02-17T04:03:34.607Z,3.10
2018-02-17T04:06:01.131Z,3.23
2018-02-17T04:08:27.625Z,2.80
2018-02-17T04:10:54.024Z,3.10
2018-02-17T04:13:21.243Z,2.90
2018-02-17T04:15:47.438Z,3.20
2018-02-17T04:18:13.795Z,3.43
2018-02-17T04:20:39.984Z,3.07
2018-02-17T04:23:06.168Z,3.20
2018-02-17T04:25:32.359Z,3.20
2018-02-17T04:27:58.630Z,3.20
2018-02-17T04:30:25.809Z,3.13
2018-02-17T04:32:52.336Z,2.80
2018-02-17T04:35:18.695Z,3.70
2018-02-17T04:37:44.971Z,3.30
2018-02-17T04:40:17.965Z,3.20
2018-02-17T04:42:45.822Z,3.53
2018-02-17T04:45:24.588Z,4.13
2018-02-17T04:48:02.656Z,3.13
2018-02-17T04:53:42.361Z,3.63
2018-02-17T04:59:25.409Z,3.97
2018-02-17T05:01:51.819Z,3.50
2018-02-17T05:04:19.087Z,4.10
2018-02-17T05:06:47.256Z,3.70
2018-02-17T05:09:13.525Z,3.60
2018-02-17T05:11:40.553Z,3.20
2018-02-17T05:14:10.967Z,3.93
2018-02-17T05:16:43.262Z,3.43
2018-02-17T05:19:12.347Z,3.87
2018-02-17T05:21:39.395Z,4.10
2018-02-17T05:24:16.498Z,3.87
2018-02-17T05:26:44.617Z,3.80
2018-02-17T05:29:17.992Z,4.20
2018-02-17T05:31:44.177Z,3.83
2018-02-17T05:34:21.160Z,3.87
2018-02-17T05:36:47.408Z,3.80
2018-02-17T05:39:13.659Z,5.03
2018-02-17T05:44:44.615Z,4.43
2018-02-17T05:47:11.738Z,4.40
2018-02-17T05:49:41.369Z,4.37
2018-02-17T05:52:07.596Z,4.40
2018-02-17T05:54:33.841Z,4.10
2018-02-17T05:57:00.186Z,5.47
2018-02-17T05:59:27.145Z,5.33
2018-02-17T06:01:53.455Z,4.30
2018-02-17T06:04:20.375Z,4.77
2018-02-17T06:06:46.908Z,5.70
2018-02-17T06:09:13.223Z,5.60
2018-02-17T06:11:39.655Z,6.93
2018-02-17T06:14:06.295Z,6.03
2018-02-17T06:16:32.525Z,7.03
2018-02-17T06:18:58.952Z,7.07
2018-02-17T06:21:25.400Z,7.17
2018-02-17T06:23:52.542Z,6.60
2018-02-17T06:26:18.832Z,7.50
2018-02-17T06:28:45.005Z,6.20
2018-02-17T06:31:12.023Z,7.43
2018-02-17T06:33:38.556Z,6.23
2018-02-17T06:36:04.763Z,6.73
2018-02-17T06:38:30.973Z,7.70
2018-02-17T06:40:57.293Z,7.70
2018-02-17T06:43:23.499Z,7.20
2018-02-17T06:45:50.458Z,7.73
2018-02-17T06:48:16.904Z,7.80
2018-02-17T06:50:43.091Z,7.50
2018-02-17T06:53:10.098Z,9.40
2018-02-17T06:55:36.428Z,9.10
2018-02-17T06:58:02.663Z,9.00
2018-02-17T07:00:28.848Z,8.93
2018-02-17T07:02:55.165Z,8.73
2018-02-17T07:05:29.032Z,10.27
2018-02-17T07:08:11.232Z,9.10
2018-02-17T07:10:37.660Z,9.10
2018-02-17T07:13:04.542Z,9.23
2018-02-17T07:15:31.534Z,9.97
2018-02-17T07:17:57.822Z,10.90
2018-02-17T07:20:24.011Z,12.13
2018-02-17T07:22:50.327Z,11.43
2018-02-17T07:25:16.506Z,11.80
2018-02-17T07:27:42.747Z,11.40
2018-02-17T07:30:15.963Z,11.03
2018-02-17T07:32:42.924Z,9.17
2018-02-17T07:35:10.004Z,10.80
2018-02-17T07:37:36.223Z,10.03
2018-02-17T07:40:03.531Z,10.03
2018-02-17T07:42:30.004Z,10.10
2018-02-17T07:44:56.947Z,10.30
2018-02-17T07:47:24.006Z,10.10
2018-02-17T07:49:50.413Z,11.17
2018-02-17T07:52:17.884Z,12.47
2018-02-17T07:54:44.231Z,16.03
2018-02-17T07:57:10.615Z,23.00
2018-02-17T07:59:36.979Z,21.17
2018-02-17T08:02:03.304Z,14.23
2018-02-17T08:04:29.639Z,10.80
2018-02-17T08:06:57.553Z,10.10
2018-02-17T08:09:24.198Z,10.10
2018-02-17T08:11:50.537Z,10.67
2018-02-17T08:14:17.136Z,9.90
2018-02-17T08:16:43.484Z,11.00
2018-02-17T08:19:09.721Z,11.60
2018-02-17T08:21:36.263Z,12.50
2018-02-17T08:24:02.568Z,16.97
2018-02-17T08:26:28.883Z,18.00
2018-02-17T08:28:56.156Z,18.10
2018-02-17T08:31:22.592Z,13.67
2018-02-17T08:33:49.219Z,12.57
2018-02-17T08:36:15.599Z,10.50
2018-02-17T08:38:41.984Z,12.20
2018-02-17T08:41:08.325Z,11.93
2018-02-17T08:43:34.963Z,10.57
2018-02-17T08:46:01.381Z,10.73
2018-02-17T08:48:27.789Z,10.67
2018-02-17T08:50:54.031Z,12.37
2018-02-17T08:53:20.385Z,13.37
2018-02-17T08:55:47.631Z,12.63
2018-02-17T08:58:14.585Z,12.63
2018-02-17T09:00:40.801Z,11.60
2018-02-17T09:03:07.167Z,11.37
2018-02-17T09:05:33.487Z,10.63
2018-02-17T09:08:00.449Z,11.93
2018-02-17T09:10:39.078Z,11.17
2018-02-17T09:13:05.436Z,11.10
2018-02-17T09:15:31.869Z,10.70
2018-02-17T09:17:58.197Z,12.70
2018-02-17T09:20:24.531Z,13.27
2018-02-17T09:22:50.859Z,13.20
2018-02-17T09:25:17.336Z,12.43
2018-02-17T09:27:43.526Z,12.30
2018-02-17T09:30:09.886Z,13.27
2018-02-17T09:32:36.758Z,14.10
2018-02-17T09:35:03.214Z,14.43
2018-02-17T09:37:29.538Z,15.00
2018-02-17T09:39:56.459Z,18.67
2018-02-17T09:42:22.926Z,18.33
2018-02-17T09:44:49.208Z,19.13
2018-02-17T09:47:15.463Z,23.10
2018-02-17T09:49:42.160Z,30.77
2018-02-17T09:52:08.346Z,30.90
2018-02-17T09:54:34.761Z,18.57
2018-02-17T09:57:00.989Z,20.50
2018-02-17T09:59:27.793Z,20.30
2018-02-17T10:01:54.111Z,23.43
2018-02-17T10:04:20.392Z,19.63
2018-02-17T10:06:46.859Z,19.10
2018-02-17T10:09:13.132Z,19.63
2018-02-17T10:11:39.471Z,19.33
2018-02-17T10:14:06.027Z,16.73
2018-02-17T10:16:32.198Z,15.37
2018-02-17T10:18:58.425Z,24.60
2018-02-17T10:21:24.633Z,25.60
2018-02-17T10:23:50.969Z,24.93
2018-02-17T10:26:17.228Z,20.57
2018-02-17T10:28:43.408Z,16.33
2018-02-17T10:31:09.912Z,16.30
2018-02-17T10:33:37.852Z,15.00
2018-02-17T10:36:04.225Z,15.63
2018-02-17T10:38:30.406Z,16.53
2018-02-17T10:40:57.650Z,15.60
2018-02-17T10:43:24.005Z,16.40
2018-02-17T10:45:50.336Z,18.30
2018-02-17T10:48:16.663Z,17.23
2018-02-17T10:50:42.903Z,15.47
2018-02-17T10:53:09.922Z,15.57
2018-02-17T10:55:37.185Z,15.57
2018-02-17T10:58:03.452Z,16.03
2018-02-17T11:00:30.456Z,16.67
2018-02-17T11:02:56.770Z,16.50
2018-02-17T11:05:22.996Z,15.60
2018-02-17T11:07:49.342Z,14.23
2018-02-17T11:10:15.503Z,15.50
2018-02-17T11:12:42.510Z,17.17
2018-02-17T11:15:08.746Z,15.87
2018-02-17T11:17:35.096Z,16.10
2018-02-17T11:20:01.404Z,15.77
2018-02-17T11:22:34.756Z,16.77
2018-02-17T11:25:01.064Z,15.50
2018-02-17T11:27:28.180Z,17.37
2018-02-17T11:29:56.068Z,17.30
2018-02-17T11:32:23.810Z,13.77
2018-02-17T11:34:50.068Z,16.67
2018-02-17T11:37:17.136Z,13.60
2018-02-17T11:39:43.510Z,16.33
2018-02-17T11:42:09.743Z,16.17
2018-02-17T11:44:36.694Z,16.07
2018-02-17T11:47:03.100Z,13.67
2018-02-17T11:49:29.354Z,14.30
2018-02-17T11:51:55.582Z,14.60
2018-02-17T11:54:21.870Z,14.93
2018-02-17T11:56:48.174Z,15.10
2018-02-17T11:59:14.409Z,14.67
2018-02-17T12:01:40.665Z,14.50
2018-02-17T12:04:06.936Z,14.77
2018-02-17T12:06:33.301Z,17.60
2018-02-17T12:08:59.709Z,15.30
2018-02-17T12:11:26.200Z,14.20
2018-02-17T12:13:52.363Z,15.63
2018-02-17T12:16:18.682Z,16.97
2018-02-17T12:18:45.786Z,14.00
2018-02-17T12:21:12.063Z,14.27
2018-02-17T12:23:38.553Z,15.57
2018-02-17T12:26:05.001Z,16.87
2018-02-17T12:28:31.518Z,15.40
2018-02-17T12:30:57.945Z,20.20
2018-02-17T12:33:24.502Z,16.70
2018-02-17T12:35:50.753Z,18.43
2018-02-17T12:38:17.846Z,17.77
2018-02-17T12:40:44.588Z,19.47
2018-02-17T12:43:11.018Z,15.90
2018-02-17T12:45:37.212Z,16.07
2018-02-17T12:48:03.481Z,17.57
2018-02-17T12:50:29.732Z,15.30
2018-02-17T12:52:56.806Z,16.57
2018-02-17T12:55:23.285Z,18.37
2018-02-17T12:57:49.748Z,17.90
2018-02-17T13:00:16.698Z,20.63
2018-02-17T13:02:43.877Z,18.47
2018-02-17T13:05:10.175Z,19.63
2018-02-17T13:07:37.393Z,24.40
2018-02-17T13:10:03.652Z,21.90
2018-02-17T13:12:31.977Z,18.70
2018-02-17T13:14:59.657Z,17.40
2018-02-17T13:17:25.919Z,17.50
2018-02-17T13:19:52.976Z,17.10
2018-02-17T13:22:19.461Z,17.90
2018-02-17T13:24:45.836Z,19.10
2018-02-17T13:27:12.672Z,15.90
2018-02-17T13:29:39.638Z,15.87
2018-02-17T13:32:05.956Z,15.50
2018-02-17T13:34:32.189Z,18.10
2018-02-17T13:36:58.557Z,17.70
2018-02-17T13:39:26.093Z,17.93
2018-02-17T13:41:52.325Z,18.80
2018-02-17T13:44:18.563Z,17.90
2018-02-17T13:46:44.938Z,19.37
2018-02-17T13:49:12.057Z,20.63
2018-02-17T13:51:39.138Z,19.47
2018-02-17T13:54:05.590Z,18.03
2018-02-17T13:56:31.814Z,17.03
2018-02-17T13:58:58.125Z,19.00
2018-02-17T14:01:24.466Z,21.50
2018-02-17T14:03:50.708Z,19.30
2018-02-17T14:06:17.463Z,22.00
2018-02-17T14:08:44.992Z,21.43
2018-02-17T14:11:11.223Z,20.67
2018-02-17T14:13:37.699Z,20.77
2018-02-17T14:16:05.490Z,22.23
2018-02-17T14:18:32.438Z,21.60
2018-02-17T14:20:59.665Z,21.83
2018-02-17T14:23:26.574Z,20.40
2018-02-17T14:25:52.802Z,22.73
2018-02-17T14:28:19.151Z,22.00
2018-02-17T14:30:45.570Z,22.70
2018-02-17T14:33:12.233Z,21.60
2018-02-17T14:35:40.080Z,21.37
2018-02-17T14:38:06.362Z,22.40
2018-02-17T14:40:32.758Z,21.07
2018-02-17T14:42:59.990Z,20.37
2018-02-17T14:45:26.171Z,21.80
2018-02-17T14:47:52.437Z,20.80
2018-02-17T14:50:18.886Z,21.57
2018-02-17T14:52:45.663Z,24.63
2018-02-17T14:55:11.907Z,24.03
2018-02-17T14:57:38.247Z,22.03
2018-02-17T15:00:05.001Z,20.80
2018-02-17T15:02:32.132Z,21.93
2018-02-17T15:04:58.508Z,22.03
2018-02-17T15:07:25.070Z,21.90
2018-02-17T15:09:51.508Z,22.97
2018-02-17T15:12:17.780Z,21.80
2018-02-17T15:14:44.515Z,23.77
2018-02-17T15:17:10.860Z,22.60
2018-02-17T15:19:38.401Z,23.27
2018-02-17T15:22:04.867Z,22.90
2018-02-17T15:24:31.855Z,20.90
2018-02-17T15:26:58.423Z,22.47
2018-02-17T15:29:24.874Z,22.77
2018-02-17T15:31:51.252Z,22.00
2018-02-17T15:34:17.482Z,20.83
2018-02-17T15:36:44.624Z,22.40
2018-02-17T15:39:11.059Z,20.70
2018-02-17T15:41:37.643Z,20.30
2018-02-17T15:44:04.768Z,22.30
2018-02-17T15:46:30.955Z,21.67
2018-02-17T15:48:57.363Z,23.10
2018-02-17T15:51:24.590Z,23.30
2018-02-17T15:53:51.925Z,24.97
2018-02-17T15:56:18.500Z,25.57
2018-02-17T15:58:45.705Z,26.30
2018-02-17T16:01:11.969Z,23.00
2018-02-17T16:03:39.024Z,26.00
2018-02-17T16:06:05.980Z,25.10
2018-02-17T16:08:32.561Z,24.67
2018-02-17T16:10:58.759Z,25.90
2018-02-17T16:13:25.173Z,23.60
2018-02-17T16:15:51.342Z,22.67
2018-02-17T16:18:17.568Z,23.37
2018-02-17T16:20:44.206Z,25.27
2018-02-17T16:23:10.640Z,24.33
2018-02-17T16:25:37.786Z,23.20
2018-02-17T16:28:04.385Z,23.37
2018-02-17T16:30:30.798Z,23.40
2018-02-17T16:32:57.985Z,24.20
2018-02-17T16:35:39.294Z,26.23
2018-02-17T16:38:05.595Z,26.00
2018-02-17T16:40:31.827Z,25.93
2018-02-17T16:42:58.106Z,26.20
2018-02-17T16:45:25.246Z,25.73
2018-02-17T16:47:51.623Z,27.33
2018-02-17T16:50:17.930Z,29.10
2018-02-17T16:52:44.202Z,26.73
2018-02-17T16:55:10.459Z,30.50
2018-02-17T16:57:37.715Z,29.10
2018-02-17T17:00:04.067Z,29.50
2018-02-17T17:02:30.322Z,24.30
2018-02-17T17:04:56.708Z,25.60
2018-02-17T17:07:23.872Z,24.30
2018-02-17T17:09:50.316Z,24.30
2018-02-17T17:12:16.966Z,24.00
2018-02-17T17:14:43.558Z,25.30
2018-02-17T17:17:11.397Z,24.97
2018-02-17T17:19:37.867Z,26.10
2018-02-17T17:22:04.503Z,27.53
2018-02-17T17:24:31.710Z,27.43
2018-02-17T17:26:58.090Z,23.80
2018-02-17T17:29:24.549Z,27.70
2018-02-17T17:31:51.766Z,27.13
2018-02-17T17:34:18.226Z,28.17
2018-02-17T17:36:44.647Z,27.80
2018-02-17T17:39:10.823Z,28.07
2018-02-17T17:41:37.791Z,30.27
2018-02-17T17:44:03.983Z,28.17
2018-02-17T17:46:30.529Z,26.87
2018-02-17T17:48:57.513Z,29.70
2018-02-17T17:51:23.846Z,29.13
2018-02-17T17:53:50.089Z,32.10
2018-02-17T17:56:16.381Z,33.10
2018-02-17T17:58:43.434Z,33.00
2018-02-17T18:01:09.661Z,36.40
2018-02-17T18:03:35.943Z,33.63
2018-02-17T18:06:02.373Z,30.47
2018-02-17T18:08:28.662Z,32.57
2018-02-17T18:10:55.138Z,32.27
2018-02-17T18:13:22.948Z,28.80
2018-02-17T18:15:49.292Z,32.07
2018-02-17T18:18:15.502Z,29.40
2018-02-17T18:20:41.922Z,28.57
2018-02-17T18:23:08.309Z,28.07
2018-02-17T18:25:34.794Z,29.17
2018-02-17T18:28:01.197Z,30.63
2018-02-17T18:30:28.255Z,29.97
2018-02-17T18:32:55.284Z,29.97
2018-02-17T18:35:21.738Z,31.30
2018-02-17T18:37:48.842Z,31.23
2018-02-17T18:40:15.542Z,30.77
2018-02-17T18:42:41.935Z,33.00
2018-02-17T18:45:09.067Z,31.20
2018-02-17T18:47:36.145Z,29.57
2018-02-17T18:50:02.428Z,31.13
2018-02-17T18:52:28.765Z,30.90
2018-02-17T18:54:55.072Z,31.53
2018-02-17T18:57:22.122Z,29.17
2018-02-17T18:59:48.534Z,28.57
2018-02-17T19:02:16.039Z,30.60
2018-02-17T19:04:43.754Z,31.13
2018-02-17T19:07:10.121Z,30.90
2018-02-17T19:09:36.374Z,28.67
2018-02-17T19:12:03.489Z,28.10
2018-02-17T19:14:29.900Z,29.60
2018-02-17T19:16:56.455Z,26.40
2018-02-17T19:19:22.813Z,25.93
2018-02-17T19:21:50.136Z,28.70
2018-02-17T19:24:16.522Z,24.53
2018-02-17T19:26:42.835Z,25.60
2018-02-17T19:29:09.827Z,26.43
2018-02-17T19:31:36.081Z,24.93
2018-02-17T19:34:02.506Z,23.63
2018-02-17T19:36:28.804Z,23.77
2018-02-17T19:38:55.290Z,24.17
2018-02-17T19:41:22.373Z,27.10
2018-02-17T19:43:48.876Z,23.07
2018-02-17T19:46:15.201Z,24.40
2018-02-17T19:48:42.329Z,26.60
2018-02-17T19:51:09.705Z,23.77
2018-02-17T19:53:37.125Z,24.13
2018-02-17T19:56:03.375Z,23.53
2018-02-17T19:58:31.261Z,22.30
2018-02-17T20:00:58.310Z,21.10
2018-02-17T20:03:25.414Z,22.87
2018-02-17T20:06:06.655Z,22.60
2018-02-17T20:08:33.142Z,22.47
2018-02-17T20:11:00.114Z,21.97
2018-02-17T20:13:27.146Z,22.30
2018-02-17T20:15:54.261Z,20.73
2018-02-17T20:18:20.589Z,22.80
2018-02-17T20:20:46.831Z,20.90
2018-02-17T20:23:13.948Z,22.50
2018-02-17T20:25:40.142Z,21.03
2018-02-17T20:28:06.489Z,21.00
2018-02-17T20:30:32.799Z,21.13
2018-02-17T20:32:59.056Z,21.00
2018-02-17T20:35:25.317Z,22.20
2018-02-17T20:37:52.261Z,20.17
2018-02-17T20:40:19.285Z,21.77
2018-02-17T20:42:45.596Z,21.67
2018-02-17T20:45:11.816Z,18.60
2018-02-17T20:47:38.116Z,21.10
2018-02-17T20:50:05.233Z,22.80
2018-02-17T20:52:33.289Z,20.80
2018-02-17T20:54:59.515Z,21.93
2018-02-17T20:57:25.892Z,20.57
2018-02-17T20:59:52.187Z,20.53
2018-02-17T21:02:20.115Z,19.57
2018-02-17T21:04:47.060Z,20.23
2018-02-17T21:07:13.822Z,19.70
2018-02-17T21:09:41.078Z,19.37
2018-02-17T21:12:07.322Z,19.47
2018-02-17T21:14:34.530Z,19.07
2018-02-17T21:17:00.835Z,18.77
2018-02-17T21:19:27.076Z,18.23
2018-02-17T21:21:53.450Z,17.77
2018-02-17T21:24:19.741Z,17.57
2018-02-17T21:26:46.209Z,17.33
2018-02-17T21:29:12.409Z,17.50
2018-02-17T21:31:38.821Z,16.77
2018-02-17T21:34:05.201Z,16.43
2018-02-17T21:36:31.618Z,17.77
2018-02-17T21:38:59.364Z,16.70
2018-02-17T21:41:25.704Z,16.33
2018-02-17T21:43:52.335Z,15.87
2018-02-17T21:46:18.819Z,16.53
2018-02-17T21:48:45.411Z,18.07
2018-02-17T21:51:11.867Z,18.97
2018-02-17T21:53:38.141Z,19.57
2018-02-17T21:56:04.610Z,16.90
2018-02-17T21:58:31.933Z,21.03
2018-02-17T22:00:58.328Z,18.87
2018-02-17T22:03:25.502Z,18.70
2018-02-17T22:05:52.223Z,20.37
2018-02-17T22:08:20.080Z,20.30
2018-02-17T22:10:47.395Z,17.77
2018-02-17T22:13:14.741Z,16.43
2018-02-17T22:15:40.968Z,16.47
2018-02-17T22:18:08.015Z,16.53
2018-02-17T22:20:34.558Z,16.07
2018-02-17T22:23:03.205Z,15.90
2018-02-17T22:25:30.112Z,16.63
2018-02-17T22:27:57.147Z,17.03
2018-02-17T22:30:23.553Z,15.23
2018-02-17T22:32:50.803Z,14.30
2018-02-17T22:35:17.865Z,14.37
2018-02-17T22:37:46.000Z,15.60
2018-02-17T22:40:12.252Z,15.70
2018-02-17T22:42:38.524Z,14.67
2018-02-17T22:45:04.762Z,15.37
2018-02-17T22:47:30.974Z,15.47
2018-02-17T22:49:58.488Z,15.07
2018-02-17T22:52:25.236Z,14.77
2018-02-17T22:54:52.018Z,14.77
2018-02-17T22:57:18.575Z,15.17
2018-02-17T22:59:45.094Z,15.67
2018-02-17T23:02:11.341Z,15.50
2018-02-17T23:04:37.664Z,15.40
2018-02-17T23:07:04.421Z,14.23
2018-02-17T23:09:31.039Z,15.00
2018-02-17T23:11:57.673Z,14.67
2018-02-17T23:14:24.651Z,13.80
2018-02-17T23:16:50.927Z,14.60
2018-02-17T23:19:17.195Z,15.10
2018-02-17T23:21:43.490Z,14.03
2018-02-17T23:24:09.737Z,14.47
2018-02-17T23:26:36.126Z,16.53
2018-02-17T23:29:03.107Z,15.00
2018-02-17T23:31:29.565Z,15.40
2018-02-17T23:33:55.931Z,18.90
2018-02-17T23:36:22.376Z,15.60
2018-02-17T23:38:48.750Z,14.53
2018-02-17T23:41:16.014Z,14.40
2018-02-17T23:43:43.126Z,14.67
2018-02-17T23:46:09.636Z,16.90
2018-02-17T23:48:36.295Z,15.70
2018-02-17T23:51:02.760Z,14.73
2018-02-17T23:53:29.264Z,16.60
2018-02-17T23:55:55.481Z,15.80
2018-02-17T23:58:22.738Z,15.40
